Time;durP1;ratioP1;P1;durP2;ratioP2;P2;SDS_P1;SDS_P2;PMS_P1;PMS_P2;Temp;Humidity;BMP_temperature;BMP_pressure;BME280_temperature;BME280_humidity;BME280_pressure;Samples;Min_cycle;Max_cycle;Signal;HPM_P1;HPM_P2
2022/05/19 04:02:58;;;;;;;6.28;5.60;;;12.20;99.90;;;;;;4956707;28;20139;-71
2022/05/19 04:05:25;;;;;;;7.07;6.18;;;12.30;99.90;;;;;;4957748;28;20132;-71
2022/05/19 04:07:51;;;;;;;6.75;5.60;;;12.40;99.90;;;;;;4959038;28;20072;-72
2022/05/19 04:10:16;;;;;;;6.13;5.47;;;12.50;99.90;;;;;;4975018;28;20060;-72
2022/05/19 04:12:43;;;;;;;7.97;5.50;;;12.60;99.90;;;;;;4978563;28;20039;-72
2022/05/19 04:15:10;;;;;;;6.90;5.13;;;12.60;99.90;;;;;;4978668;28;20042;-72
2022/05/19 04:17:35;;;;;;;8.05;5.20;;;12.70;99.90;;;;;;4993127;28;20047;-72
2022/05/19 04:20:09;;;;;;;6.38;5.32;;;12.70;99.90;;;;;;4978687;28;20485;-73
2022/05/19 04:22:39;;;;;;;6.63;5.18;;;12.90;99.90;;;;;;4993314;28;20043;-74
2022/05/19 04:25:06;;;;;;;5.85;5.10;;;12.90;99.90;;;;;;4993050;28;20043;-74
2022/05/19 04:27:33;;;;;;;6.22;5.28;;;13.00;99.90;;;;;;4977863;28;20077;-73
2022/05/19 04:29:59;;;;;;;6.53;5.53;;;13.10;99.90;;;;;;4978282;28;20038;-73
2022/05/19 04:32:24;;;;;;;9.27;5.63;;;13.20;99.90;;;;;;4977965;28;20035;-72
2022/05/19 04:34:50;;;;;;;6.55;5.10;;;13.20;99.90;;;;;;4977476;28;22148;-73
2022/05/19 04:37:15;;;;;;;5.57;4.97;;;13.30;99.90;;;;;;4977406;28;20047;-73
2022/05/19 04:39:41;;;;;;;6.20;4.88;;;13.40;99.90;;;;;;4978402;28;20035;-73
2022/05/19 04:42:09;;;;;;;6.40;5.13;;;13.40;99.90;;;;;;4977938;28;20118;-73
2022/05/19 04:44:35;;;;;;;10.10;5.20;;;13.40;99.90;;;;;;4977583;28;20035;-73
2022/05/19 04:47:01;;;;;;;8.05;5.03;;;13.50;99.90;;;;;;4977643;28;20130;-73
2022/05/19 04:49:27;;;;;;;7.97;5.43;;;13.50;99.90;;;;;;4976687;28;20126;-73
2022/05/19 04:51:52;;;;;;;5.93;5.05;;;13.60;99.90;;;;;;4977709;28;20079;-72
2022/05/19 04:54:18;;;;;;;7.10;5.55;;;13.70;99.90;;;;;;4977573;28;20031;-73
2022/05/19 04:56:46;;;;;;;8.00;5.43;;;13.90;99.90;;;;;;4977812;28;20098;-73
2022/05/19 04:59:14;;;;;;;6.75;5.53;;;14.00;99.90;;;;;;4977490;28;20086;-73
2022/05/19 05:01:46;;;;;;;6.60;5.18;;;14.10;99.90;;;;;;4976257;28;20122;-73
2022/05/19 05:04:13;;;;;;;8.65;5.13;;;14.30;99.90;;;;;;4958045;28;20043;-73
2022/05/19 05:06:39;;;;;;;7.25;5.80;;;14.40;99.90;;;;;;4958389;28;20115;-73
2022/05/19 05:09:06;;;;;;;6.70;5.13;;;14.50;99.90;;;;;;4988468;28;20039;-73
2022/05/19 05:11:31;;;;;;;7.93;4.75;;;14.60;99.90;;;;;;4977183;28;20090;-72
2022/05/19 05:13:57;;;;;;;9.45;5.25;;;14.70;99.90;;;;;;4977642;28;20446;-72
2022/05/19 05:16:23;;;;;;;11.75;5.22;;;14.80;99.90;;;;;;4977089;28;20078;-71
2022/05/19 05:18:49;;;;;;;7.25;4.97;;;14.90;99.90;;;;;;4977240;28;20142;-72
2022/05/19 05:21:14;;;;;;;6.90;4.85;;;15.00;99.90;;;;;;4977593;28;20041;-72
2022/05/19 05:23:40;;;;;;;7.35;4.88;;;15.20;99.90;;;;;;4976396;28;20039;-73
2022/05/19 05:26:06;;;;;;;6.90;4.70;;;15.30;99.90;;;;;;4977355;28;20039;-73
2022/05/19 05:28:36;;;;;;;5.57;4.50;;;15.40;99.90;;;;;;4977399;28;20038;-72
2022/05/19 05:31:02;;;;;;;9.85;5.00;;;15.50;99.90;;;;;;4977028;28;20039;-72
2022/05/19 05:33:27;;;;;;;8.57;4.80;;;15.70;99.90;;;;;;4977439;28;20038;-73
2022/05/19 05:35:53;;;;;;;5.53;4.50;;;15.60;99.90;;;;;;4977284;28;20039;-72
2022/05/19 05:38:19;;;;;;;6.90;4.15;;;15.70;99.90;;;;;;4977105;28;20043;-73
2022/05/19 05:40:45;;;;;;;6.40;4.40;;;15.80;99.90;;;;;;4977988;28;20071;-72
2022/05/19 05:43:13;;;;;;;6.05;4.32;;;15.90;99.90;;;;;;4977189;28;20351;-73
2022/05/19 05:45:43;;;;;;;6.78;4.00;;;16.00;99.90;;;;;;4986261;28;20070;-74
2022/05/19 05:48:10;;;;;;;5.53;4.18;;;16.10;99.90;;;;;;4977690;28;20417;-73
2022/05/19 05:50:36;;;;;;;4.97;4.18;;;16.10;99.90;;;;;;4978030;28;20154;-73
2022/05/19 05:53:02;;;;;;;7.88;4.50;;;16.20;99.90;;;;;;4981553;28;20043;-73
2022/05/19 05:55:28;;;;;;;7.05;4.38;;;16.30;99.90;;;;;;4986210;28;20179;-73
2022/05/19 05:57:54;;;;;;;7.60;4.10;;;16.40;99.90;;;;;;4986739;28;20076;-71
2022/05/19 06:00:20;;;;;;;7.30;4.18;;;16.50;99.90;;;;;;4987422;28;20031;-72
2022/05/19 06:02:48;;;;;;;7.07;3.72;;;16.50;99.90;;;;;;4984140;28;20082;-72
2022/05/19 06:05:14;;;;;;;6.25;3.97;;;16.60;99.90;;;;;;4977120;28;20039;-73
2022/05/19 06:07:40;;;;;;;7.07;3.80;;;16.70;99.90;;;;;;4977005;28;20039;-73
2022/05/19 06:10:06;;;;;;;7.72;3.95;;;16.80;99.90;;;;;;4976687;28;20039;-72
2022/05/19 06:12:32;;;;;;;6.40;3.70;;;16.80;99.90;;;;;;4975940;28;20071;-72
2022/05/19 06:14:57;;;;;;;4.55;3.40;;;16.90;99.90;;;;;;4975784;28;20465;-73
2022/05/19 06:17:24;;;;;;;6.03;3.85;;;17.00;99.90;;;;;;4976413;28;20047;-72
2022/05/19 06:19:51;;;;;;;7.63;3.50;;;17.00;99.90;;;;;;4976612;28;20035;-72
2022/05/19 06:22:18;;;;;;;6.05;3.40;;;17.10;99.90;;;;;;4976018;28;20039;-72
2022/05/19 06:24:44;;;;;;;5.72;3.35;;;17.20;99.90;;;;;;4976590;28;20102;-73
2022/05/19 06:27:10;;;;;;;6.05;3.58;;;17.40;99.90;;;;;;4976069;28;20039;-73
2022/05/19 06:29:36;;;;;;;4.43;3.35;;;17.50;99.90;;;;;;4976223;28;21020;-73
2022/05/19 06:32:01;;;;;;;4.93;2.90;;;17.50;99.90;;;;;;4975497;28;20135;-73
2022/05/19 06:34:27;;;;;;;7.03;3.20;;;17.60;99.90;;;;;;4975627;28;20042;-72
2022/05/19 06:36:53;;;;;;;9.57;3.58;;;17.70;99.90;;;;;;4990484;28;20111;-72
2022/05/19 06:39:19;;;;;;;6.88;3.22;;;17.80;99.90;;;;;;4976529;28;20027;-74
2022/05/19 06:42:00;;;;;;;5.53;3.25;;;17.90;99.90;;;;;;4977078;28;20046;-79
2022/05/19 06:44:35;;;;;;;4.75;2.65;;;18.20;99.90;;;;;;4975223;28;20477;-76
2022/05/19 06:47:01;;;;;;;4.28;2.83;;;18.20;99.90;;;;;;4965053;28;20063;-73
2022/05/19 06:49:27;;;;;;;4.20;2.95;;;18.40;99.50;;;;;;4983358;28;20039;-72
2022/05/19 06:51:53;;;;;;;3.92;2.65;;;18.60;99.90;;;;;;4976011;28;20067;-73
2022/05/19 06:54:20;;;;;;;6.03;2.83;;;18.60;98.50;;;;;;4975856;28;20032;-73
2022/05/19 06:56:46;;;;;;;6.60;2.92;;;18.80;98.10;;;;;;4976011;28;20042;-73
2022/05/19 06:59:12;;;;;;;5.10;2.67;;;19.00;98.60;;;;;;4976368;28;20072;-73
2022/05/19 07:01:38;;;;;;;3.53;2.70;;;19.10;97.00;;;;;;4975414;28;20114;-73
2022/05/19 07:04:03;;;;;;;4.72;2.65;;;19.30;96.20;;;;;;4990577;28;20084;-73
2022/05/19 07:06:29;;;;;;;3.58;2.58;;;19.50;96.10;;;;;;4975897;28;20031;-73
2022/05/19 07:08:55;;;;;;;5.10;2.40;;;19.70;95.70;;;;;;4975911;28;20568;-74
2022/05/19 07:11:27;;;;;;;3.72;2.80;;;19.80;95.80;;;;;;4975675;28;20039;-73
2022/05/19 07:13:59;;;;;;;4.53;2.63;;;20.10;94.90;;;;;;4975493;28;20024;-73
2022/05/19 07:16:25;;;;;;;6.25;2.67;;;20.20;94.30;;;;;;4975498;28;20048;-73
2022/05/19 07:18:50;;;;;;;4.03;2.78;;;20.40;94.40;;;;;;4975539;28;20520;-74
2022/05/19 07:21:18;;;;;;;4.20;2.53;;;20.60;94.00;;;;;;4975676;28;20114;-72
2022/05/19 07:23:46;;;;;;;5.75;2.75;;;20.80;93.70;;;;;;4975626;28;20043;-72
2022/05/19 07:26:11;;;;;;;2.60;2.40;;;21.00;92.30;;;;;;4974997;28;20074;-72
2022/05/19 07:28:37;;;;;;;4.00;2.42;;;21.10;92.50;;;;;;4976008;28;20106;-78
2022/05/19 07:31:03;;;;;;;5.03;2.42;;;21.20;93.00;;;;;;4975926;28;20059;-76
2022/05/19 07:33:29;;;;;;;4.78;2.40;;;21.40;92.10;;;;;;4975667;28;20058;-75
2022/05/19 07:35:55;;;;;;;5.35;2.78;;;21.50;91.40;;;;;;4974095;28;20126;-74
2022/05/19 07:38:21;;;;;;;6.63;2.40;;;21.60;92.00;;;;;;4976195;28;20036;-75
2022/05/19 07:40:49;;;;;;;2.97;2.20;;;21.90;90.50;;;;;;4975475;28;20044;-74
2022/05/19 07:45:58;;;;;;;4.40;1.95;;;22.30;90.00;;;;;;4976126;28;20043;-79
2022/05/19 07:48:24;;;;;;;4.22;2.17;;;22.60;89.40;;;;;;4990061;28;20035;-76
2022/05/19 07:50:50;;;;;;;2.78;2.00;;;23.00;90.00;;;;;;4977092;28;20043;-76
2022/05/19 07:53:15;;;;;;;3.22;2.30;;;22.90;84.40;;;;;;4974597;28;20405;-76
2022/05/19 07:55:41;;;;;;;3.25;2.05;;;23.00;85.50;;;;;;4974517;28;20058;-74
2022/05/19 07:58:07;;;;;;;4.85;2.08;;;23.30;87.10;;;;;;4973419;28;20039;-74
2022/05/19 08:00:32;;;;;;;3.60;1.98;;;23.60;84.30;;;;;;4989829;28;20127;-75
2022/05/19 08:02:58;;;;;;;2.78;2.20;;;23.90;83.30;;;;;;4975852;28;20042;-76
2022/05/19 08:05:24;;;;;;;4.30;2.30;;;24.00;79.10;;;;;;4974193;28;20038;-76
2022/05/19 08:07:49;;;;;;;3.63;2.30;;;24.10;77.40;;;;;;4975121;28;20039;-75
2022/05/19 08:10:21;;;;;;;3.55;2.13;;;24.30;79.60;;;;;;4974802;28;20063;-75
2022/05/19 09:00:37;;;;;;;5.15;2.50;;;26.50;71.20;;;;;;5154882;27;20227;-78
2022/05/19 09:03:19;;;;;;;4.47;2.22;;;26.50;71.10;;;;;;5153980;27;20054;-76
2022/05/19 09:06:06;;;;;;;2.60;2.30;;;26.70;72.90;;;;;;5142692;27;20089;-75
2022/05/19 09:08:44;;;;;;;4.60;2.75;;;26.80;70.30;;;;;;5133230;27;20036;-78
2022/05/19 09:11:23;;;;;;;3.42;2.50;;;27.10;71.00;;;;;;5131610;27;20042;-76
2022/05/19 09:14:00;;;;;;;4.25;2.30;;;27.00;72.10;;;;;;5132901;27;20036;-75
2022/05/19 09:16:29;;;;;;;5.47;2.38;;;27.20;71.50;;;;;;5143078;27;20405;-75
2022/05/19 09:19:07;;;;;;;5.47;2.30;;;27.40;70.30;;;;;;5151897;27;20039;-75
2022/05/19 09:21:34;;;;;;;4.38;2.63;;;27.70;70.50;;;;;;5133102;27;20118;-75
2022/05/19 09:24:00;;;;;;;7.32;2.55;;;27.70;68.10;;;;;;5132908;27;20512;-77
2022/05/19 09:26:45;;;;;;;4.53;2.20;;;27.70;69.00;;;;;;5133687;27;20028;-76
2022/05/19 09:29:16;;;;;;;3.47;2.10;;;27.80;68.20;;;;;;5150596;27;20061;-76
2022/05/19 09:31:52;;;;;;;2.35;1.90;;;28.00;63.20;;;;;;5140667;27;20107;-76
2022/05/19 09:34:23;;;;;;;4.22;2.28;;;27.90;64.10;;;;;;5130853;27;20032;-76
2022/05/19 09:37:08;;;;;;;3.50;2.40;;;27.90;64.20;;;;;;5133330;27;20038;-77
2022/05/19 09:39:43;;;;;;;5.20;2.40;;;27.90;66.60;;;;;;5136722;27;20565;-77
2022/05/19 09:42:12;;;;;;;5.78;2.10;;;27.90;65.60;;;;;;5152826;27;20039;-73
2022/05/19 09:44:43;;;;;;;2.60;2.20;;;28.20;69.80;;;;;;5152781;27;20480;-76
2022/05/19 09:47:25;;;;;;;5.85;2.35;;;28.30;66.50;;;;;;5146482;27;20122;-74
2022/05/19 09:50:00;;;;;;;7.53;2.50;;;28.50;64.00;;;;;;5131561;27;20552;-73
2022/05/19 09:52:27;;;;;;;5.75;2.40;;;28.50;65.90;;;;;;5131307;27;20055;-79
2022/05/19 09:54:56;;;;;;;4.55;2.90;;;28.90;65.70;;;;;;5134190;27;20061;-79
2022/05/19 09:57:45;;;;;;;5.32;2.63;;;28.90;66.30;;;;;;5142888;27;20587;-78
2022/05/19 10:00:37;;;;;;;3.58;2.50;;;29.10;64.50;;;;;;5155666;27;20127;-81
2022/05/19 10:03:08;;;;;;;8.35;3.25;;;29.00;64.40;;;;;;5145752;27;20028;-78
2022/05/19 10:05:39;;;;;;;7.95;2.70;;;29.50;62.50;;;;;;5135226;27;20035;-79
2022/05/19 10:08:12;;;;;;;5.55;2.47;;;29.70;63.20;;;;;;5144120;27;20042;-78
2022/05/19 10:10:47;;;;;;;4.53;2.53;;;29.50;64.10;;;;;;5147221;27;20128;-82
2022/05/19 10:13:17;;;;;;;6.60;2.85;;;29.60;62.00;;;;;;5143141;27;20020;-80
2022/05/19 10:15:57;;;;;;;5.53;3.05;;;30.00;63.20;;;;;;5143719;27;20483;-81
2022/05/19 10:18:54;;;;;;;3.97;2.53;;;29.50;63.30;;;;;;5132583;27;20032;-82
2022/05/19 10:21:34;;;;;;;7.80;2.72;;;29.40;63.90;;;;;;5117594;27;20105;-82
2022/05/19 10:24:06;;;;;;;3.72;2.65;;;29.50;67.50;;;;;;5136580;27;20028;-82
2022/05/19 10:26:31;;;;;;;5.68;2.67;;;29.50;63.20;;;;;;5142614;27;20027;-82
2022/05/19 10:32:39;;;;;;;4.47;2.80;;;30.30;61.90;;;;;;5140378;27;20031;-79
2022/05/19 10:35:19;;;;;;;4.20;2.60;;;30.00;61.50;;;;;;5135016;27;20438;-81
2022/05/19 10:37:56;;;;;;;4.32;2.60;;;30.10;61.40;;;;;;5123911;27;20074;-79
2022/05/19 10:40:34;;;;;;;5.95;2.40;;;30.20;62.60;;;;;;5134095;27;20058;-79
2022/05/19 10:43:35;;;;;;;8.88;2.80;;;30.30;61.70;;;;;;5141220;27;20518;-84
2022/05/19 10:46:01;;;;;;;9.63;3.10;;;30.70;63.20;;;;;;5071803;28;20123;-80
2022/05/19 10:49:03;;;;;;;4.18;2.50;;;31.20;61.40;;;;;;5107453;27;20070;-79
2022/05/19 10:51:47;;;;;;;7.03;2.90;;;31.50;60.00;;;;;;5117388;27;20032;-72
2022/05/19 10:54:39;;;;;;;4.10;2.75;;;31.40;62.20;;;;;;5117246;27;20036;-71
2022/05/19 10:57:29;;;;;;;9.23;3.03;;;31.20;61.70;;;;;;5109761;27;20484;-71
2022/05/19 11:00:07;;;;;;;5.00;2.88;;;31.30;63.40;;;;;;5127603;27;20043;-72
2022/05/19 11:03:23;;;;;;;5.28;2.88;;;31.20;60.10;;;;;;5129247;27;20031;-73
2022/05/19 11:06:19;;;;;;;4.03;2.88;;;31.30;61.70;;;;;;5060724;27;20056;-70
2022/05/19 11:08:45;;;;;;;8.18;3.10;;;30.80;63.50;;;;;;5117440;27;20032;-72
2022/05/19 11:11:27;;;;;;;7.00;3.10;;;30.90;61.70;;;;;;5123387;27;20469;-72
2022/05/19 11:14:29;;;;;;;5.20;3.38;;;30.80;62.00;;;;;;5134832;27;20035;-79
2022/05/19 11:17:13;;;;;;;4.75;3.00;;;30.90;67.30;;;;;;5134601;27;20168;-78
2022/05/19 11:19:59;;;;;;;4.82;2.67;;;30.60;63.70;;;;;;5125249;27;20043;-78
